DXB weather

Dubai International Airport
Dubai, Dubai Emirate, United Arab Emirates

Public forecast

Using degrees Celsius for public forecast. Weather courtesy of forecast.io.

Current aviation weather report (METAR) for Dubai International Airport

Retrieved 2019/10/13 19:00 UTC (6 minutes ago):

OMDB 131900Z 11008KT 060V130 CAVOK 32/20 Q1013 NOSIG

Aviation forecast (TAF) for Dubai International Airport

Retrieved 2019/10/13 18:00 UTC (1 hour ago):

TAF OMDB 131651Z 1318/1500 10008KT CAVOK BECMG 1408/1410 33013KT BECMG 1417/1419 09005KT